Time;durP1;ratioP1;P1;durP2;ratioP2;P2;SDS_P1;SDS_P2;PMS_P1;PMS_P2;Temp;Humidity;BMP_temperature;BMP_pressure;BME280_temperature;BME280_humidity;BME280_pressure;Samples;Min_cycle;Max_cycle;Signal;HPM_P1;HPM_P2
2023/01/12 00:01:25;;;;;;;6.32;4.20;;;8.30;99.90;;;;;;5063302;28;20025;-76
2023/01/12 00:03:52;;;;;;;5.25;4.50;;;8.30;99.90;;;;;;5063197;28;20059;-76
2023/01/12 00:06:18;;;;;;;6.55;4.57;;;8.30;99.90;;;;;;5045355;28;20025;-76
2023/01/12 00:08:45;;;;;;;4.65;4.25;;;8.30;99.90;;;;;;5063226;28;20033;-76
2023/01/12 00:11:10;;;;;;;6.57;4.65;;;8.30;99.90;;;;;;5044715;28;20055;-76
2023/01/12 00:13:36;;;;;;;5.00;4.50;;;8.40;99.90;;;;;;5060880;28;20029;-76
2023/01/12 00:18:48;;;;;;;5.60;4.45;;;8.40;99.90;;;;;;5061621;28;20182;-76
2023/01/12 00:21:15;;;;;;;7.20;5.22;;;8.40;99.90;;;;;;5061549;28;20021;-76
2023/01/12 00:23:43;;;;;;;5.68;5.10;;;8.40;99.90;;;;;;5043646;28;20040;-76
2023/01/12 00:26:09;;;;;;;6.90;4.30;;;8.40;99.90;;;;;;5061638;28;20079;-76
2023/01/12 00:28:36;;;;;;;6.07;4.45;;;8.50;99.90;;;;;;5043158;28;20106;-76
2023/01/12 00:31:03;;;;;;;4.60;4.20;;;8.40;99.90;;;;;;5060898;28;20108;-76
2023/01/12 00:33:29;;;;;;;5.57;4.45;;;8.40;99.90;;;;;;5060908;28;20131;-76
2023/01/12 00:35:55;;;;;;;4.75;4.28;;;8.40;99.90;;;;;;5061982;28;20036;-76
2023/01/12 00:38:20;;;;;;;4.72;4.07;;;8.50;99.90;;;;;;5061271;28;20033;-76
2023/01/12 00:40:46;;;;;;;5.47;4.38;;;8.50;99.90;;;;;;5062124;28;20114;-76
2023/01/12 00:45:56;;;;;;;6.57;4.70;;;8.50;99.90;;;;;;5061116;28;20036;-76
2023/01/12 00:48:23;;;;;;;5.35;4.72;;;8.50;99.90;;;;;;5043917;28;20029;-76
2023/01/12 00:50:48;;;;;;;5.57;4.97;;;8.50;99.90;;;;;;5043056;28;20025;-76
2023/01/12 00:53:14;;;;;;;7.43;5.20;;;8.50;99.90;;;;;;5041707;28;20107;-76
2023/01/12 00:55:39;;;;;;;7.18;5.00;;;8.50;99.90;;;;;;5060888;28;20057;-76
2023/01/12 00:58:05;;;;;;;6.63;5.22;;;8.50;99.90;;;;;;5043315;28;20057;-76
2023/01/12 01:00:31;;;;;;;7.40;5.13;;;8.40;99.90;;;;;;5043480;28;20490;-76
2023/01/12 01:02:57;;;;;;;7.28;5.60;;;8.50;99.90;;;;;;5060457;28;20039;-76
2023/01/12 01:05:22;;;;;;;6.25;4.78;;;8.50;99.90;;;;;;5060216;28;20382;-76
2023/01/12 01:07:48;;;;;;;6.57;5.43;;;8.50;99.90;;;;;;5043232;28;20033;-76
2023/01/12 01:10:15;;;;;;;8.70;5.57;;;8.40;99.90;;;;;;5059316;28;20092;-76
2023/01/12 01:12:41;;;;;;;7.70;5.65;;;8.40;99.90;;;;;;5060080;28;20021;-76
2023/01/12 01:15:07;;;;;;;6.82;5.38;;;8.40;99.90;;;;;;5059219;28;20108;-76
2023/01/12 01:17:33;;;;;;;6.10;5.50;;;8.40;99.90;;;;;;5058466;28;20029;-76
2023/01/12 01:20:00;;;;;;;6.38;5.30;;;8.40;99.90;;;;;;5040512;28;20039;-76
2023/01/12 01:22:26;;;;;;;11.32;5.80;;;8.40;99.90;;;;;;5040518;28;20029;-76
2023/01/12 01:24:51;;;;;;;6.07;5.47;;;8.50;99.90;;;;;;5058960;28;20048;-76
2023/01/12 01:27:17;;;;;;;8.45;5.40;;;8.50;99.90;;;;;;5057519;28;20045;-76
2023/01/12 01:29:42;;;;;;;7.88;5.13;;;8.50;99.90;;;;;;5042371;28;20032;-76
2023/01/12 01:32:08;;;;;;;5.70;4.53;;;8.50;99.90;;;;;;5062077;28;20025;-76
2023/01/12 01:34:35;;;;;;;6.63;4.55;;;8.50;99.90;;;;;;5044977;28;20053;-76
2023/01/12 01:37:00;;;;;;;5.00;4.07;;;8.50;99.90;;;;;;5060272;28;20060;-76
2023/01/12 01:39:26;;;;;;;4.25;3.72;;;8.50;99.90;;;;;;5060435;28;20479;-76
2023/01/12 01:41:52;;;;;;;4.93;4.20;;;8.50;99.90;;;;;;5060504;28;20025;-76
2023/01/12 01:44:30;;;;;;;5.20;3.55;;;8.50;99.90;;;;;;5044382;28;20029;-76
2023/01/12 01:46:59;;;;;;;5.15;4.00;;;8.50;99.90;;;;;;5060437;28;20025;-75
2023/01/12 01:49:44;;;;;;;5.03;3.92;;;8.50;99.90;;;;;;5061736;28;20025;-76
2023/01/12 01:52:21;;;;;;;6.10;3.60;;;8.40;99.90;;;;;;5044871;28;20036;-76
2023/01/12 01:55:17;;;;;;;6.57;3.60;;;8.40;99.90;;;;;;5061634;28;20086;-76
2023/01/12 01:57:57;;;;;;;8.85;3.20;;;8.40;99.90;;;;;;5057924;28;20041;-76
2023/01/12 02:00:24;;;;;;;6.10;3.28;;;8.40;99.90;;;;;;5044416;28;20036;-77
2023/01/12 02:02:51;;;;;;;5.07;3.85;;;8.30;99.90;;;;;;5060405;28;20025;-77
2023/01/12 02:05:20;;;;;;;3.67;2.88;;;8.30;99.90;;;;;;5060780;28;20039;-76
2023/01/12 02:07:48;;;;;;;5.30;3.22;;;8.40;99.90;;;;;;5041013;28;20483;-76
2023/01/12 02:10:15;;;;;;;5.10;3.28;;;8.40;99.90;;;;;;5039716;28;20037;-76
2023/01/12 02:18:22;;;;;;;5.07;2.97;;;8.40;99.90;;;;;;5057672;28;20035;-76
2023/01/12 02:21:08;;;;;;;4.50;2.47;;;8.40;99.90;;;;;;5039529;28;20470;-76
2023/01/12 02:24:12;;;;;;;3.90;2.47;;;8.40;99.90;;;;;;5058334;28;20029;-76
2023/01/12 02:26:41;;;;;;;3.15;2.70;;;8.30;99.90;;;;;;5040888;28;20478;-76
2023/01/12 02:29:25;;;;;;;2.95;2.08;;;8.30;99.90;;;;;;5041029;28;20052;-76
2023/01/12 02:32:18;;;;;;;6.68;2.88;;;8.30;99.90;;;;;;5058172;28;20098;-77
2023/01/12 02:34:53;;;;;;;2.80;2.50;;;8.30;99.90;;;;;;5040978;28;20032;-76
2023/01/12 02:37:44;;;;;;;3.85;2.60;;;8.30;99.90;;;;;;5058311;28;20036;-77
2023/01/12 02:40:29;;;;;;;4.05;2.63;;;8.30;99.90;;;;;;5059560;28;20040;-76
2023/01/12 02:43:12;;;;;;;4.22;2.75;;;8.20;99.90;;;;;;5041406;28;20029;-77
2023/01/12 02:45:41;;;;;;;6.25;2.85;;;8.30;99.90;;;;;;5057146;28;20029;-77
2023/01/12 02:48:17;;;;;;;;;;;8.30;99.90;;;;;;5039422;28;20397;-77
2023/01/12 02:50:51;;;;;;;2.50;2.13;;;8.30;99.90;;;;;;5058702;28;19905;-77
2023/01/12 02:53:31;;;;;;;4.28;2.58;;;8.20;99.90;;;;;;5058602;28;20033;-77
2023/01/12 02:56:01;;;;;;;3.55;2.22;;;8.20;99.90;;;;;;5040021;28;20040;-77
2023/01/12 02:58:29;;;;;;;2.70;1.98;;;8.20;99.90;;;;;;5040266;28;20033;-77
2023/01/12 03:00:59;;;;;;;3.25;2.40;;;8.20;99.90;;;;;;5059279;28;20052;-77
2023/01/12 03:03:25;;;;;;;4.47;2.40;;;8.20;99.90;;;;;;5060889;28;20043;-77
2023/01/12 03:05:57;;;;;;;13.00;3.35;;;8.20;99.90;;;;;;5057416;28;20482;-77
2023/01/12 03:08:27;;;;;;;4.03;1.95;;;8.20;99.90;;;;;;5040750;28;20029;-77
2023/01/12 03:11:05;;;;;;;4.00;2.60;;;8.20;99.90;;;;;;5059802;28;20025;-77
2023/01/12 03:13:35;;;;;;;4.32;2.20;;;8.20;99.90;;;;;;5039863;28;20029;-77
2023/01/12 03:16:03;;;;;;;4.88;2.10;;;8.20;99.90;;;;;;5040272;28;20562;-77
2023/01/12 03:18:43;;;;;;;3.85;2.15;;;8.20;99.90;;;;;;5039799;28;20381;-78
2023/01/12 03:21:13;;;;;;;2.67;2.47;;;8.20;99.90;;;;;;5042393;28;20025;-78
2023/01/12 03:23:51;;;;;;;3.15;2.30;;;8.20;99.90;;;;;;5040069;28;20021;-78
2023/01/12 03:26:22;;;;;;;3.47;2.50;;;8.20;99.90;;;;;;5041777;28;20041;-78
2023/01/12 03:28:52;;;;;;;4.63;2.40;;;8.20;99.90;;;;;;5041070;28;20080;-78
2023/01/12 03:31:18;;;;;;;4.40;2.50;;;8.20;99.90;;;;;;5042022;28;20079;-78
2023/01/12 03:33:44;;;;;;;3.60;2.45;;;8.20;99.90;;;;;;5043371;28;20028;-78
2023/01/12 03:36:38;;;;;;;6.18;2.90;;;8.20;99.90;;;;;;5061541;28;20060;-78
2023/01/12 03:39:10;;;;;;;4.38;2.50;;;8.20;99.90;;;;;;5042791;28;20380;-78
2023/01/12 03:41:39;;;;;;;4.60;2.70;;;8.20;99.90;;;;;;5042248;28;20469;-77
2023/01/12 03:44:07;;;;;;;;;;;8.20;99.90;;;;;;5059166;28;20029;-77
2023/01/12 03:46:41;;;;;;;5.07;3.05;;;8.20;99.90;;;;;;5042481;28;19904;-78
2023/01/12 03:49:22;;;;;;;3.50;2.35;;;8.10;99.90;;;;;;5060612;28;20036;-78
2023/01/12 03:51:48;;;;;;;4.70;2.72;;;8.10;99.90;;;;;;5063415;28;20028;-77
2023/01/12 03:54:15;;;;;;;5.07;2.90;;;8.10;99.90;;;;;;5044782;28;20025;-78
2023/01/12 03:56:44;;;;;;;6.28;2.40;;;8.10;99.90;;;;;;5045848;28;20037;-77
2023/01/12 03:59:10;;;;;;;8.48;2.45;;;8.00;99.90;;;;;;5044937;28;20463;-77
2023/01/12 04:01:36;;;;;;;3.47;2.30;;;8.00;99.90;;;;;;5062285;28;20025;-78
2023/01/12 04:04:02;;;;;;;6.40;2.60;;;8.00;99.90;;;;;;5062495;28;20025;-77
2023/01/12 04:06:28;;;;;;;4.28;2.30;;;8.00;99.90;;;;;;5063112;28;20021;-78
2023/01/12 04:08:53;;;;;;;4.30;2.28;;;7.90;99.90;;;;;;5044794;28;20029;-78
2023/01/12 04:14:03;;;;;;;4.00;1.98;;;7.90;99.90;;;;;;5064686;28;20378;-78
2023/01/12 04:16:29;;;;;;;4.15;2.13;;;7.90;99.90;;;;;;5061520;28;20021;-77
2023/01/12 04:18:54;;;;;;;2.22;1.75;;;7.90;99.90;;;;;;5064451;28;20033;-78
2023/01/12 04:24:04;;;;;;;2.38;1.80;;;7.90;99.90;;;;;;5064053;28;20036;-78
2023/01/12 04:26:30;;;;;;;4.72;1.75;;;7.90;99.90;;;;;;5045229;28;20025;-77
2023/01/12 04:28:56;;;;;;;3.03;1.63;;;7.90;99.90;;;;;;5045214;28;20387;-78
2023/01/12 04:31:21;;;;;;;3.80;1.50;;;7.90;99.90;;;;;;5046440;28;20485;-78
2023/01/12 04:33:47;;;;;;;6.18;1.52;;;7.90;99.90;;;;;;5044109;28;20025;-78
2023/01/12 04:36:12;;;;;;;4.50;1.50;;;7.90;99.90;;;;;;5043876;28;20059;-78
2023/01/12 04:38:39;;;;;;;4.93;1.70;;;7.90;99.90;;;;;;5045526;28;20021;-78
2023/01/12 04:41:06;;;;;;;8.02;1.50;;;7.80;99.90;;;;;;5044542;28;20025;-78
2023/01/12 04:43:32;;;;;;;3.17;1.38;;;7.80;99.90;;;;;;5044999;28;20031;-78
2023/01/12 04:45:58;;;;;;;3.20;1.40;;;7.80;99.90;;;;;;5063565;28;20055;-78
2023/01/12 04:48:23;;;;;;;3.05;1.67;;;7.80;99.90;;;;;;5045364;28;20044;-78
2023/01/12 04:50:49;;;;;;;2.45;1.35;;;7.80;99.90;;;;;;5044434;28;20025;-77
2023/01/12 04:53:15;;;;;;;3.50;1.85;;;7.70;99.90;;;;;;5044223;28;20021;-78
2023/01/12 04:55:42;;;;;;;2.72;1.17;;;7.80;99.90;;;;;;5044834;28;20049;-78
2023/01/12 04:58:09;;;;;;;3.28;1.00;;;7.80;99.90;;;;;;5063083;28;20024;-78
2023/01/12 05:00:35;;;;;;;3.70;1.17;;;7.70;99.90;;;;;;5044305;28;20572;-78
2023/01/12 05:03:02;;;;;;;6.63;1.20;;;7.70;99.90;;;;;;5062060;28;20029;-78
2023/01/12 05:05:29;;;;;;;5.22;1.08;;;7.70;99.90;;;;;;5044185;28;20017;-78
2023/01/12 05:10:47;;;;;;;5.18;1.60;;;7.70;99.90;;;;;;5062080;28;20032;-78
2023/01/12 05:13:13;;;;;;;2.40;1.23;;;7.60;99.90;;;;;;5058587;28;20021;-77
2023/01/12 05:15:39;;;;;;;5.60;1.67;;;7.60;99.90;;;;;;5041817;28;20063;-78
2023/01/12 05:18:04;;;;;;;4.68;1.48;;;7.70;99.90;;;;;;5058939;28;20084;-79
2023/01/12 05:20:30;;;;;;;5.68;2.00;;;7.70;99.90;;;;;;5058515;28;20516;-82
2023/01/12 05:22:55;;;;;;;7.40;1.42;;;7.70;99.90;;;;;;5040820;28;20386;-79
2023/01/12 05:25:21;;;;;;;4.35;1.70;;;7.70;99.90;;;;;;5041282;28;20021;-80
2023/01/12 05:27:47;;;;;;;1.58;1.23;;;7.70;99.90;;;;;;5040884;28;20559;-79
2023/01/12 05:30:13;;;;;;;5.15;1.60;;;7.70;99.90;;;;;;5059199;28;20084;-78
2023/01/12 05:32:42;;;;;;;3.67;1.83;;;7.60;99.90;;;;;;5059876;28;20378;-78
2023/01/12 05:35:08;;;;;;;3.70;1.52;;;7.60;99.90;;;;;;5044051;28;20058;-78
2023/01/12 05:37:34;;;;;;;5.80;1.50;;;7.60;99.90;;;;;;5060832;28;20065;-79
2023/01/12 05:40:00;;;;;;;4.13;1.40;;;7.60;99.90;;;;;;5060807;28;20021;-79
2023/01/12 05:45:10;;;;;;;4.32;1.88;;;7.50;99.90;;;;;;5060835;28;20052;-78
2023/01/12 05:47:36;;;;;;;2.78;1.10;;;7.50;99.90;;;;;;5059908;28;20470;-80
2023/01/12 05:50:04;;;;;;;4.20;1.13;;;7.50;99.90;;;;;;5061167;28;20025;-79
2023/01/12 05:52:29;;;;;;;4.03;1.42;;;7.40;99.90;;;;;;5043313;28;20032;-80
2023/01/12 05:54:55;;;;;;;5.03;1.45;;;7.40;99.90;;;;;;5043653;28;20479;-79
2023/01/12 05:57:20;;;;;;;2.15;1.52;;;7.40;99.90;;;;;;5042843;28;20033;-79
2023/01/12 05:59:46;;;;;;;6.40;1.80;;;7.40;99.90;;;;;;5062522;28;20032;-80
2023/01/12 06:02:16;;;;;;;6.43;1.50;;;7.40;99.90;;;;;;5061960;28;20039;-80
2023/01/12 06:04:42;;;;;;;5.05;1.30;;;7.40;99.90;;;;;;5061920;28;20027;-79
2023/01/12 06:07:11;;;;;;;3.40;1.40;;;7.30;99.90;;;;;;5041956;28;20492;-80
2023/01/12 06:09:37;;;;;;;4.75;1.42;;;7.30;99.90;;;;;;5041837;28;20449;-80
2023/01/12 06:14:47;;;;;;;5.03;1.42;;;7.20;99.90;;;;;;5059497;28;20044;-80
2023/01/12 06:17:13;;;;;;;7.22;1.67;;;7.20;99.90;;;;;;5059322;28;20025;-80
2023/01/12 06:19:39;;;;;;;5.60;2.08;;;7.20;99.90;;;;;;5058322;28;20031;-79
2023/01/12 06:22:07;;;;;;;3.85;1.42;;;7.20;99.90;;;;;;5041601;28;20115;-79
2023/01/12 06:24:32;;;;;;;3.65;1.48;;;7.10;99.90;;;;;;5057458;28;20382;-80
2023/01/12 06:26:58;;;;;;;4.90;2.22;;;7.10;99.90;;;;;;5038666;28;20064;-79
2023/01/12 06:29:24;;;;;;;6.57;2.28;;;7.10;99.90;;;;;;5039191;28;20029;-79
2023/01/12 06:31:50;;;;;;;4.72;1.88;;;7.00;99.90;;;;;;5039261;28;20029;-81
2023/01/12 06:34:16;;;;;;;4.75;2.33;;;7.00;99.90;;;;;;5057190;28;20100;-80
2023/01/12 06:36:41;;;;;;;6.88;1.92;;;7.00;99.90;;;;;;5055822;28;20036;-80
2023/01/12 06:39:07;;;;;;;4.30;1.77;;;7.00;99.90;;;;;;5039171;28;20039;-79
2023/01/12 06:44:18;;;;;;;6.10;2.20;;;6.90;99.90;;;;;;5058544;28;20035;-80
2023/01/12 06:46:44;;;;;;;3.90;1.70;;;6.90;99.90;;;;;;5058404;28;20095;-79
2023/01/12 06:49:09;;;;;;;5.90;2.13;;;6.90;99.90;;;;;;5040442;28;20041;-80
2023/01/12 06:51:35;;;;;;;7.13;1.90;;;6.90;99.90;;;;;;5058660;28;20029;-80
2023/01/12 06:54:01;;;;;;;3.97;2.13;;;6.80;99.90;;;;;;5040833;28;20485;-80
2023/01/12 06:56:27;;;;;;;6.82;2.55;;;6.80;99.90;;;;;;5059402;28;20025;-80
2023/01/12 06:58:53;;;;;;;7.20;1.73;;;6.80;99.90;;;;;;5059614;28;20032;-79
2023/01/12 07:01:18;;;;;;;5.03;1.90;;;6.80;99.90;;;;;;5041340;28;20025;-81
2023/01/12 07:03:44;;;;;;;3.83;2.20;;;6.80;99.90;;;;;;5059567;28;20139;-80
2023/01/12 07:06:10;;;;;;;3.88;2.10;;;6.90;99.90;;;;;;5042099;28;20493;-79
2023/01/12 07:08:35;;;;;;;7.90;2.25;;;6.90;99.90;;;;;;5060733;28;20033;-80
2023/01/12 07:11:02;;;;;;;3.47;2.03;;;6.90;99.90;;;;;;5058153;28;20474;-79
2023/01/12 07:13:29;;;;;;;6.70;2.05;;;6.90;99.90;;;;;;5060084;28;20048;-80
2023/01/12 07:16:00;;;;;;;3.40;1.55;;;6.90;99.90;;;;;;5060418;28;20359;-80
2023/01/12 07:18:26;;;;;;;3.50;1.30;;;6.90;99.90;;;;;;5043606;28;20037;-82
2023/01/12 07:20:53;;;;;;;3.20;1.25;;;6.90;99.90;;;;;;5060410;28;20036;-80
2023/01/12 07:23:18;;;;;;;3.90;1.17;;;6.80;99.90;;;;;;5060752;28;20044;-81
2023/01/12 07:25:44;;;;;;;3.25;0.80;;;6.80;99.90;;;;;;5064553;28;20163;-82
2023/01/12 07:28:10;;;;;;;2.25;1.00;;;6.90;99.90;;;;;;5046338;28;20053;-80
2023/01/12 07:30:36;;;;;;;2.97;1.25;;;6.90;99.90;;;;;;5047443;28;20067;-80
2023/01/12 07:33:10;;;;;;;4.70;1.30;;;6.90;99.90;;;;;;5046620;28;20106;-80
2023/01/12 07:35:35;;;;;;;4.78;1.52;;;6.90;99.90;;;;;;5065083;28;20025;-80
2023/01/12 07:38:01;;;;;;;4.07;0.93;;;6.90;99.90;;;;;;5063172;28;20470;-81
2023/01/12 07:40:27;;;;;;;4.18;1.10;;;6.90;99.90;;;;;;5046493;28;20079;-80
2023/01/12 07:43:00;;;;;;;1.85;0.90;;;6.90;99.90;;;;;;5064322;28;20021;-80
2023/01/12 07:45:27;;;;;;;8.38;0.90;;;6.90;99.90;;;;;;5047043;28;20055;-81
2023/01/12 07:47:54;;;;;;;3.03;0.60;;;6.90;99.90;;;;;;5046901;28;20540;-81
2023/01/12 07:50:24;;;;;;;1.25;0.65;;;6.90;99.90;;;;;;5046803;28;20104;-81
2023/01/12 07:52:49;;;;;;;1.23;0.80;;;6.90;99.90;;;;;;5063438;28;20040;-81
2023/01/12 07:55:17;;;;;;;4.13;1.10;;;6.90;99.90;;;;;;5063893;28;20025;-81
2023/01/12 07:57:53;;;;;;;1.50;0.70;;;6.90;99.90;;;;;;5063423;28;20025;-81
2023/01/12 08:00:22;;;;;;;7.97;0.80;;;6.90;99.90;;;;;;5046583;28;20029;-81
2023/01/12 08:02:52;;;;;;;2.38;0.80;;;7.00;99.90;;;;;;5064425;28;20074;-81
2023/01/12 08:05:19;;;;;;;2.10;0.60;;;7.10;99.90;;;;;;5065016;28;20025;-80
2023/01/12 08:07:45;;;;;;;2.38;0.60;;;7.10;99.90;;;;;;5064106;28;20090;-80
2023/01/12 08:10:12;;;;;;;5.05;0.75;;;7.10;99.90;;;;;;5045226;28;20428;-81
2023/01/12 08:12:38;;;;;;;3.35;0.68;;;7.20;99.90;;;;;;5063461;28;20493;-82
2023/01/12 08:15:05;;;;;;;3.95;0.80;;;7.40;99.90;;;;;;5064308;28;20032;-81
2023/01/12 08:17:36;;;;;;;5.35;1.00;;;7.70;99.90;;;;;;5062449;28;20048;-81
2023/01/12 08:20:16;;;;;;;4.40;0.52;;;8.00;99.90;;;;;;5047434;28;20048;-82
2023/01/12 08:22:46;;;;;;;4.40;0.77;;;8.20;99.90;;;;;;5064490;28;20051;-81
2023/01/12 08:25:17;;;;;;;2.60;0.65;;;8.40;99.90;;;;;;5047027;28;20032;-81
2023/01/12 08:27:46;;;;;;;3.35;0.63;;;8.70;99.90;;;;;;5064067;28;20049;-82
2023/01/12 08:30:15;;;;;;;3.65;0.57;;;8.90;99.90;;;;;;5063723;28;20021;-82
2023/01/12 08:32:41;;;;;;;3.13;0.65;;;9.20;99.90;;;;;;5045927;28;20047;-82
2023/01/12 08:35:08;;;;;;;4.57;0.57;;;9.60;99.90;;;;;;5044071;28;20025;-82
2023/01/12 08:37:34;;;;;;;3.63;0.75;;;9.90;99.90;;;;;;5063220;28;20099;-81
2023/01/12 08:40:01;;;;;;;4.43;0.50;;;10.20;99.90;;;;;;5045903;28;20035;-81
2023/01/12 08:42:27;;;;;;;6.88;0.65;;;10.50;99.90;;;;;;5044523;28;20519;-81
2023/01/12 08:44:53;;;;;;;1.77;0.52;;;10.50;99.90;;;;;;5044855;28;20029;-81
2023/01/12 08:47:25;;;;;;;4.93;0.60;;;10.60;99.90;;;;;;5044833;28;20466;-81
2023/01/12 08:49:51;;;;;;;5.65;0.60;;;10.80;99.90;;;;;;5045592;28;20028;-81
2023/01/12 08:52:17;;;;;;;1.42;0.25;;;11.10;99.90;;;;;;5043642;28;20040;-81
2023/01/12 08:54:43;;;;;;;5.93;0.70;;;11.20;99.90;;;;;;5062353;28;20021;-81
2023/01/12 08:57:09;;;;;;;3.92;0.52;;;11.50;99.90;;;;;;5059205;28;20031;-81
2023/01/12 08:59:35;;;;;;;6.18;0.85;;;11.80;99.10;;;;;;5056426;28;20028;-81
2023/01/12 09:02:01;;;;;;;4.22;0.50;;;12.00;98.00;;;;;;5058301;28;20405;-81
2023/01/12 09:04:27;;;;;;;2.35;0.20;;;11.90;97.40;;;;;;5059913;28;20025;-81
2023/01/12 09:06:52;;;;;;;3.97;1.00;;;11.80;96.90;;;;;;5058584;28;20481;-82
2023/01/12 09:09:19;;;;;;;2.50;0.57;;;12.10;96.70;;;;;;5056073;28;20029;-82
2023/01/12 09:11:45;;;;;;;5.57;1.65;;;12.50;95.30;;;;;;5055895;28;20029;-81
2023/01/12 09:14:12;;;;;;;2.22;0.32;;;12.60;93.80;;;;;;5056874;28;20032;-82
2023/01/12 09:16:39;;;;;;;4.95;0.80;;;12.60;93.20;;;;;;5055494;28;20049;-80
2023/01/12 09:19:05;;;;;;;3.00;0.45;;;12.70;92.20;;;;;;5037060;28;20068;-81
2023/01/12 09:21:31;;;;;;;5.65;0.60;;;12.90;91.50;;;;;;5037228;28;20029;-81
2023/01/12 09:23:57;;;;;;;3.53;0.50;;;13.20;90.30;;;;;;5037353;28;20393;-81
2023/01/12 09:26:34;;;;;;;4.95;0.52;;;13.30;87.30;;;;;;5037625;28;20035;-82
2023/01/12 09:29:03;;;;;;;4.55;0.47;;;13.10;85.60;;;;;;5037219;28;20045;-82
2023/01/12 09:31:30;;;;;;;2.97;0.60;;;13.00;84.50;;;;;;5038574;28;20139;-81
2023/01/12 09:33:56;;;;;;;5.90;0.57;;;12.90;86.00;;;;;;5038879;28;20039;-81
2023/01/12 09:36:34;;;;;;;6.50;1.67;;;12.80;84.60;;;;;;5056653;28;20025;-82
2023/01/12 09:39:03;;;;;;;4.22;0.70;;;12.70;84.00;;;;;;5039022;28;20086;-81
2023/01/12 09:47:27;;;;;;;10.18;1.15;;;13.00;82.70;;;;;;5047692;28;20059;-81
2023/01/12 09:50:00;;;;;;;8.77;0.68;;;13.30;80.30;;;;;;5056117;28;20418;-81
2023/01/12 09:52:33;;;;;;;3.05;0.38;;;13.30;78.60;;;;;;5056537;28;20108;-81
2023/01/12 09:54:58;;;;;;;5.40;0.52;;;13.20;78.50;;;;;;5037984;28;20025;-81
2023/01/12 09:57:50;;;;;;;4.53;0.50;;;13.20;78.40;;;;;;5037234;28;20040;-81
2023/01/12 10:00:17;;;;;;;3.72;0.68;;;13.40;77.20;;;;;;5037430;28;20029;-81
2023/01/12 10:02:48;;;;;;;4.88;0.82;;;13.40;76.10;;;;;;5054988;28;20039;-81
2023/01/12 10:05:39;;;;;;;2.20;0.38;;;13.50;75.80;;;;;;5037045;28;20024;-81
2023/01/12 10:08:24;;;;;;;3.28;1.23;;;13.20;75.80;;;;;;5042507;28;20045;-81
2023/01/12 10:11:03;;;;;;;7.47;0.82;;;12.90;77.30;;;;;;5057101;28;20100;-81
2023/01/12 10:13:40;;;;;;;2.30;0.50;;;12.80;78.00;;;;;;5054868;28;20029;-82
2023/01/12 10:16:32;;;;;;;5.93;0.60;;;13.00;78.50;;;;;;5054679;28;20459;-82
2023/01/12 10:19:05;;;;;;;2.35;0.40;;;12.90;76.30;;;;;;5054496;28;20044;-82
2023/01/12 10:21:31;;;;;;;5.28;0.63;;;12.90;76.80;;;;;;5055900;28;20032;-81
2023/01/12 10:23:57;;;;;;;2.33;0.30;;;12.60;76.90;;;;;;5056625;28;20029;-82
2023/01/12 10:26:36;;;;;;;6.43;0.50;;;12.50;76.80;;;;;;5039355;28;20029;-82
2023/01/12 10:29:02;;;;;;;6.47;0.85;;;12.60;76.50;;;;;;5056255;28;20442;-83
2023/01/12 10:31:28;;;;;;;5.82;0.80;;;12.60;77.20;;;;;;5037993;28;20063;-82
2023/01/12 10:34:08;;;;;;;9.45;0.60;;;12.90;76.40;;;;;;5056530;28;20025;-81
2023/01/12 10:36:45;;;;;;;3.10;1.02;;;12.90;75.30;;;;;;5056373;28;20021;-81
2023/01/12 10:39:30;;;;;;;5.38;0.52;;;12.70;74.20;;;;;;5039052;28;20124;-82
2023/01/12 10:43:17;;;;;;;4.10;0.40;;;12.80;74.30;;;;;;5039917;28;20036;-83
2023/01/12 10:45:15;;;;;;;1.55;0.40;;;13.00;74.40;;;;;;5056928;28;20029;-81
2023/01/12 10:47:42;;;;;;;3.33;0.30;;;13.20;72.20;;;;;;5039436;28;20229;-81
2023/01/12 10:50:19;;;;;;;8.38;1.05;;;13.30;71.20;;;;;;5056234;28;20033;-82
2023/01/12 10:52:45;;;;;;;6.80;0.93;;;13.40;71.60;;;;;;5055126;28;20529;-81
2023/01/12 10:55:22;;;;;;;7.45;0.68;;;13.50;70.20;;;;;;5057774;28;20017;-82
2023/01/12 10:57:49;;;;;;;4.85;0.55;;;13.70;69.70;;;;;;5038119;28;20032;-82
2023/01/12 11:00:20;;;;;;;1.52;0.43;;;13.90;69.30;;;;;;5038875;28;20025;-81
2023/01/12 11:02:46;;;;;;;6.70;0.75;;;14.10;67.30;;;;;;5058112;28;20025;-81
2023/01/12 11:05:37;;;;;;;3.97;0.40;;;13.90;67.20;;;;;;5058051;28;20041;-82
2023/01/12 11:08:20;;;;;;;1.98;0.40;;;13.80;66.50;;;;;;5042274;28;20067;-83
2023/01/12 11:10:45;;;;;;;2.28;0.50;;;13.20;66.60;;;;;;5062905;28;20029;-82
2023/01/12 11:13:39;;;;;;;2.25;0.35;;;12.80;67.60;;;;;;5062455;28;20025;-83
2023/01/12 11:16:20;;;;;;;2.45;0.40;;;12.70;68.60;;;;;;5062049;28;20482;-83
2023/01/12 11:19:08;;;;;;;1.17;0.65;;;12.70;69.70;;;;;;5044535;28;20025;-82
2023/01/12 11:21:38;;;;;;;6.57;0.50;;;12.90;68.50;;;;;;5062843;28;20083;-82
2023/01/12 11:24:14;;;;;;;2.50;0.75;;;13.50;66.60;;;;;;5042383;28;20021;-82
2023/01/12 11:26:50;;;;;;;3.10;0.85;;;14.00;65.60;;;;;;5040944;28;20021;-82
2023/01/12 11:29:37;;;;;;;4.35;0.88;;;14.50;63.10;;;;;;5058065;28;20079;-82
2023/01/12 11:32:23;;;;;;;5.15;0.50;;;14.50;62.50;;;;;;5040181;28;20025;-82
2023/01/12 11:35:07;;;;;;;4.55;0.45;;;14.40;62.60;;;;;;5057741;28;20373;-83
2023/01/12 11:37:37;;;;;;;3.70;1.02;;;14.70;61.20;;;;;;5040041;28;20033;-82
2023/01/12 11:40:14;;;;;;;6.32;0.60;;;15.20;60.20;;;;;;5057842;28;20343;-82
2023/01/12 11:45:37;;;;;;;5.13;0.50;;;14.60;59.60;;;;;;5059168;28;20032;-83
2023/01/12 11:48:18;;;;;;;5.32;0.73;;;14.40;60.50;;;;;;5058854;28;20032;-81
2023/01/12 11:50:46;;;;;;;2.03;0.20;;;13.70;60.80;;;;;;5062998;28;20101;-82
2023/01/12 11:53:22;;;;;;;0.98;0.20;;;13.10;62.00;;;;;;5044598;28;20383;-83
2023/01/12 11:56:25;;;;;;;2.17;0.40;;;13.00;63.30;;;;;;5061949;28;20040;-82
2023/01/12 11:59:35;;;;;;;7.35;1.00;;;13.30;62.70;;;;;;5043838;28;20040;-82
2023/01/12 12:02:35;;;;;;;4.13;0.57;;;13.60;61.80;;;;;;5041739;28;20029;-83
2023/01/12 12:05:03;;;;;;;2.38;0.22;;;13.80;61.80;;;;;;5037579;28;20136;-82
2023/01/12 12:07:47;;;;;;;4.93;0.60;;;13.80;61.90;;;;;;5040327;28;20179;-83
2023/01/12 12:10:22;;;;;;;2.17;0.30;;;13.60;62.20;;;;;;5042295;28;20032;-83
2023/01/12 12:13:13;;;;;;;6.30;0.40;;;13.90;62.60;;;;;;5057567;28;20397;-83
2023/01/12 12:16:12;;;;;;;5.45;0.98;;;14.30;61.40;;;;;;5043772;28;20025;-83
2023/01/12 12:19:09;;;;;;;8.48;1.08;;;14.00;60.60;;;;;;5048394;28;20064;-83
2023/01/12 12:21:48;;;;;;;4.10;0.45;;;14.10;59.70;;;;;;5066726;28;20017;-83
2023/01/12 12:24:29;;;;;;;;;;;14.50;59.70;;;;;;5043625;28;20107;-82
2023/01/12 12:27:23;;;;;;;1.55;0.10;;;15.00;57.10;;;;;;5061957;28;19905;-82
2023/01/12 12:29:58;;;;;;;3.08;0.45;;;14.50;57.20;;;;;;5049412;28;20041;-82
2023/01/12 12:32:33;;;;;;;4.50;0.32;;;14.20;58.70;;;;;;5064015;28;20099;-84
2023/01/12 12:35:13;;;;;;;4.00;1.02;;;14.60;58.70;;;;;;5057027;28;20029;-85
2023/01/12 12:37:39;;;;;;;4.60;0.38;;;15.60;57.40;;;;;;5039228;28;20036;-84
2023/01/12 12:40:28;;;;;;;5.93;0.68;;;16.30;54.90;;;;;;5038900;28;20382;-84
2023/01/12 12:46:09;;;;;;;4.57;0.60;;;15.90;53.00;;;;;;5056698;28;20063;-84
2023/01/12 12:48:57;;;;;;;5.60;1.00;;;15.70;54.20;;;;;;5056426;28;20064;-84
2023/01/12 12:51:24;;;;;;;5.07;0.50;;;15.70;53.20;;;;;;5039383;28;20025;-84
2023/01/12 12:53:53;;;;;;;6.00;0.70;;;15.70;54.20;;;;;;5038560;28;20028;-84
2023/01/12 12:56:22;;;;;;;8.73;0.82;;;15.30;53.90;;;;;;5038753;28;20025;-82
2023/01/12 12:58:49;;;;;;;3.67;0.63;;;14.80;55.10;;;;;;5057340;28;20060;-83
2023/01/12 13:01:24;;;;;;;4.68;0.68;;;14.50;56.00;;;;;;5045100;28;20092;-84
2023/01/12 13:04:11;;;;;;;5.43;0.63;;;13.90;57.10;;;;;;5051819;28;20021;-84
2023/01/12 13:07:01;;;;;;;3.28;0.40;;;13.50;58.40;;;;;;5052301;28;20021;-84
2023/01/12 13:09:26;;;;;;;3.78;0.30;;;13.40;59.20;;;;;;5052958;28;20033;-84
2023/01/12 13:11:59;;;;;;;3.70;0.50;;;13.20;59.30;;;;;;5068715;28;20031;-83
2023/01/12 13:14:31;;;;;;;5.45;0.60;;;12.80;60.30;;;;;;5064224;28;20024;-84
2023/01/12 13:17:05;;;;;;;2.58;0.43;;;12.40;61.30;;;;;;5047623;28;20059;-82
2023/01/12 13:19:36;;;;;;;5.38;0.57;;;12.10;61.70;;;;;;5067938;28;20478;-83
2023/01/12 13:22:39;;;;;;;3.88;0.40;;;11.90;62.90;;;;;;5048070;28;20124;-83
2023/01/12 13:25:21;;;;;;;1.30;0.40;;;11.80;63.40;;;;;;5065829;28;20025;-83
2023/01/12 13:28:00;;;;;;;6.25;0.80;;;11.80;64.00;;;;;;5067249;28;20076;-83
2023/01/12 13:30:25;;;;;;;;;;;11.70;64.00;;;;;;5048012;28;20458;-84
2023/01/12 13:33:13;;;;;;;5.00;0.50;;;11.60;64.40;;;;;;5049066;28;19905;-83
2023/01/12 13:35:39;;;;;;;2.53;0.60;;;11.60;64.40;;;;;;5050337;28;20021;-84
2023/01/12 13:38:17;;;;;;;3.13;0.40;;;11.50;65.00;;;;;;5048120;28;20409;-82
2023/01/12 13:40:43;;;;;;;1.70;0.28;;;11.40;64.50;;;;;;5048805;28;20021;-83
2023/01/12 13:43:40;;;;;;;5.10;0.28;;;11.40;65.30;;;;;;5050560;28;20029;-84
2023/01/12 13:46:12;;;;;;;8.95;0.57;;;11.40;65.90;;;;;;5049925;28;20021;-83
2023/01/12 13:48:43;;;;;;;5.25;0.70;;;11.30;65.80;;;;;;5047283;28;20032;-84
2023/01/12 13:51:30;;;;;;;2.05;0.20;;;11.30;66.10;;;;;;5046812;28;20047;-84
2023/01/12 13:54:14;;;;;;;5.13;0.60;;;11.20;65.60;;;;;;5045302;28;20032;-84
2023/01/12 13:56:41;;;;;;;4.18;0.85;;;11.20;65.30;;;;;;5044826;28;20025;-84